createdAt,value
2023-05-01T00:02:47.548Z,13.40
2023-05-01T00:07:50.748Z,8.00
2023-05-01T00:12:53.806Z,12.50
2023-05-01T00:17:57.016Z,11.70
2023-05-01T00:23:00.159Z,18.70
2023-05-01T00:28:03.316Z,17.30
2023-05-01T00:33:06.364Z,14.40
2023-05-01T00:38:09.628Z,11.40
2023-05-01T00:43:13.064Z,16.00
2023-05-01T00:48:16.515Z,18.60
2023-05-01T00:53:21.127Z,14.70
2023-05-01T00:58:24.589Z,12.00
2023-05-01T01:03:27.988Z,10.20
2023-05-01T01:08:41.242Z,9.90
2023-05-01T01:14:03.834Z,11.60
2023-05-01T01:19:22.291Z,8.40
2023-05-01T01:24:43.247Z,8.40
2023-05-01T01:30:17.992Z,6.80
2023-05-01T01:35:27.146Z,5.40
2023-05-01T01:40:57.084Z,7.10
2023-05-01T01:46:05.462Z,8.90
2023-05-01T01:51:15.139Z,8.90
2023-05-01T01:56:22.144Z,6.50
2023-05-01T02:01:26.801Z,7.30
2023-05-01T02:06:33.751Z,7.20
2023-05-01T02:11:38.259Z,6.00
2023-05-01T02:16:45.435Z,6.40
2023-05-01T02:21:50.769Z,5.40
2023-05-01T02:27:17.242Z,4.20
2023-05-01T02:32:20.509Z,5.00
2023-05-01T02:37:23.923Z,4.20
2023-05-01T02:42:28.846Z,4.10
2023-05-01T02:47:38.210Z,3.70
2023-05-01T02:52:42.953Z,3.50
2023-05-01T02:57:51.367Z,3.50
2023-05-01T03:02:54.888Z,4.70
2023-05-01T03:07:58.129Z,4.60
2023-05-01T03:13:01.270Z,4.30
2023-05-01T03:18:05.882Z,4.40
2023-05-01T03:23:09.263Z,3.60
2023-05-01T03:28:12.244Z,4.50
2023-05-01T03:33:15.349Z,4.10
2023-05-01T03:38:18.354Z,6.20
2023-05-01T03:43:21.304Z,4.70
2023-05-01T03:48:24.927Z,5.30
2023-05-01T03:53:27.867Z,5.20
2023-05-01T03:58:30.875Z,5.90
2023-05-01T04:03:33.926Z,6.00
2023-05-01T04:08:36.996Z,7.20
2023-05-01T04:13:39.960Z,6.60
2023-05-01T04:18:42.820Z,7.60
2023-05-01T04:23:45.759Z,6.60
2023-05-01T04:28:48.647Z,8.10
2023-05-01T04:33:51.841Z,8.20
2023-05-01T04:38:54.767Z,7.90
2023-05-01T04:43:57.696Z,8.80
2023-05-01T04:49:00.637Z,8.30
2023-05-01T04:54:04.846Z,8.30
2023-05-01T04:59:07.984Z,8.10
2023-05-01T05:04:11.422Z,8.60
2023-05-01T05:09:14.778Z,8.60
2023-05-01T05:14:17.703Z,10.30
2023-05-01T05:19:20.798Z,8.70
2023-05-01T05:24:23.940Z,7.90
2023-05-01T05:29:27.336Z,8.80
2023-05-01T05:34:30.250Z,8.40
2023-05-01T05:39:33.458Z,9.70
2023-05-01T05:44:36.579Z,6.80
2023-05-01T05:49:39.544Z,6.70
2023-05-01T05:54:42.475Z,6.40
2023-05-01T05:59:45.389Z,6.90
2023-05-01T06:04:48.257Z,4.60
2023-05-01T06:09:51.302Z,5.70
2023-05-01T06:14:54.259Z,4.70
2023-05-01T06:19:57.283Z,4.60
2023-05-01T06:25:00.777Z,4.70
2023-05-01T06:30:03.910Z,4.30
2023-05-01T06:35:08.228Z,4.20
2023-05-01T06:40:14.701Z,4.90
2023-05-01T06:45:17.648Z,4.40
2023-05-01T06:50:20.903Z,3.70
2023-05-01T06:55:24.063Z,3.80
2023-05-01T07:00:27.345Z,4.20
2023-05-01T07:05:30.655Z,4.00
2023-05-01T07:10:33.727Z,3.80
2023-05-01T07:15:37.314Z,3.40
2023-05-01T07:20:40.919Z,3.00
2023-05-01T07:25:45.393Z,3.80
2023-05-01T07:30:48.864Z,3.60
2023-05-01T07:35:52.478Z,3.70
2023-05-01T07:40:57.033Z,3.90
2023-05-01T07:46:01.623Z,3.60
2023-05-01T07:51:05.090Z,3.20
2023-05-01T07:56:10.159Z,3.50
2023-05-01T08:01:13.395Z,3.50
2023-05-01T08:06:16.488Z,3.50
2023-05-01T08:11:19.542Z,3.80
2023-05-01T08:16:22.533Z,3.10
2023-05-01T08:21:25.467Z,3.70
2023-05-01T08:26:28.384Z,2.80
2023-05-01T08:31:31.500Z,3.50
2023-05-01T08:36:34.778Z,3.40
2023-05-01T08:41:38.298Z,3.00
2023-05-01T08:47:16.155Z,3.30
2023-05-01T08:52:22.326Z,4.10
2023-05-01T08:57:27.405Z,3.60
2023-05-01T09:02:35.409Z,3.80
2023-05-01T09:07:39.143Z,4.90
2023-05-01T09:12:45.049Z,4.50
2023-05-01T09:17:48.379Z,3.70
2023-05-01T09:22:51.823Z,3.10
2023-05-01T09:27:57.022Z,3.40
2023-05-01T09:33:14.887Z,3.80
2023-05-01T09:38:26.910Z,3.80
2023-05-01T09:43:31.612Z,3.00
2023-05-01T09:48:35.944Z,3.90
2023-05-01T09:53:41.835Z,2.50
2023-05-01T09:58:44.852Z,2.60
2023-05-01T10:03:55.386Z,2.40
2023-05-01T10:08:58.634Z,3.00
2023-05-01T10:14:10.364Z,2.10
2023-05-01T10:19:14.038Z,2.80
2023-05-01T10:24:17.474Z,2.40
2023-05-01T10:29:23.527Z,2.30
2023-05-01T10:34:28.502Z,2.30
2023-05-01T10:39:35.913Z,3.40
2023-05-01T10:44:38.977Z,2.20
2023-05-01T10:50:08.869Z,2.30
2023-05-01T10:55:51.096Z,2.60
2023-05-01T11:01:34.098Z,3.20
2023-05-01T11:06:40.288Z,3.00
2023-05-01T11:11:43.372Z,2.10
2023-05-01T11:16:48.326Z,2.30
2023-05-01T11:21:51.836Z,2.50
2023-05-01T11:26:55.578Z,2.10
2023-05-01T11:32:00.103Z,2.20
2023-05-01T11:37:03.322Z,2.00
2023-05-01T11:42:09.406Z,1.80
2023-05-01T11:47:12.957Z,2.60
2023-05-01T11:52:16.497Z,2.40
2023-05-01T11:57:20.347Z,2.20
2023-05-01T12:02:23.798Z,2.20
2023-05-01T12:07:26.983Z,1.90
2023-05-01T12:12:30.363Z,1.70
2023-05-01T12:17:33.622Z,1.80
2023-05-01T12:22:50.303Z,1.80
2023-05-01T12:27:53.752Z,1.90
2023-05-01T12:32:59.137Z,1.70
2023-05-01T12:38:23.613Z,1.60
2023-05-01T12:43:38.366Z,1.90
2023-05-01T12:48:41.813Z,2.10
2023-05-01T12:53:44.971Z,1.70
2023-05-01T12:58:48.107Z,1.80
2023-05-01T13:03:51.316Z,2.10
2023-05-01T13:08:54.385Z,2.20
2023-05-01T13:14:09.132Z,2.10
2023-05-01T13:19:13.258Z,2.00
2023-05-01T13:24:16.405Z,2.00
2023-05-01T13:29:19.364Z,2.30
2023-05-01T13:34:43.074Z,2.00
2023-05-01T13:39:47.461Z,2.20
2023-05-01T13:44:58.101Z,2.60
2023-05-01T13:50:01.339Z,2.20
2023-05-01T13:55:07.690Z,2.50
2023-05-01T14:00:19.841Z,2.20
2023-05-01T14:05:30.919Z,2.00
2023-05-01T14:10:37.111Z,1.70
2023-05-01T14:15:43.970Z,2.20
2023-05-01T14:21:05.170Z,1.80
2023-05-01T14:26:09.489Z,1.70
2023-05-01T14:31:22.216Z,1.70
2023-05-01T14:36:26.907Z,1.40
2023-05-01T14:41:43.017Z,2.10
2023-05-01T14:46:52.405Z,2.10
2023-05-01T14:51:55.559Z,1.80
2023-05-01T14:56:58.694Z,1.70
2023-05-01T15:02:01.630Z,1.80
2023-05-01T15:07:04.702Z,1.70
2023-05-01T15:12:11.313Z,1.80
2023-05-01T15:17:22.650Z,2.20
2023-05-01T15:22:36.186Z,2.00
2023-05-01T15:27:39.573Z,1.90
2023-05-01T15:32:43.036Z,2.20
2023-05-01T15:37:46.251Z,2.40
2023-05-01T15:42:51.773Z,2.10
2023-05-01T15:47:56.710Z,1.70
2023-05-01T15:52:59.801Z,1.80
2023-05-01T15:58:02.952Z,2.50
2023-05-01T16:03:07.969Z,1.60
2023-05-01T16:08:11.248Z,2.10
2023-05-01T16:13:14.409Z,2.90
2023-05-01T16:18:21.691Z,2.70
2023-05-01T16:23:25.829Z,6.70
2023-05-01T16:28:29.127Z,10.40
2023-05-01T16:33:33.844Z,5.30
2023-05-01T16:38:39.503Z,7.50
2023-05-01T16:43:42.478Z,6.10
2023-05-01T16:48:47.991Z,10.70
2023-05-01T16:53:51.194Z,6.60
2023-05-01T16:58:54.105Z,12.10
2023-05-01T17:03:57.189Z,11.70
2023-05-01T17:09:00.313Z,12.90
2023-05-01T17:14:03.718Z,15.30
2023-05-01T17:19:09.009Z,10.70
2023-05-01T17:24:13.987Z,14.10
2023-05-01T17:29:17.047Z,10.40
2023-05-01T17:34:20.127Z,16.00
2023-05-01T17:39:23.216Z,11.80
2023-05-01T17:44:26.165Z,17.90
2023-05-01T17:49:29.535Z,11.40
2023-05-01T17:54:32.877Z,22.30
2023-05-01T17:59:36.489Z,44.10
2023-05-01T18:04:39.439Z,51.30
2023-05-01T18:09:42.418Z,32.10
2023-05-01T18:14:45.449Z,24.50
2023-05-01T18:19:50.035Z,33.70
2023-05-01T18:24:53.390Z,25.50
2023-05-01T18:29:56.838Z,22.20
2023-05-01T18:35:00.226Z,12.60
2023-05-01T18:40:05.640Z,13.20
2023-05-01T18:45:12.605Z,15.40
2023-05-01T18:50:21.984Z,13.00
2023-05-01T18:55:25.898Z,13.40
2023-05-01T19:00:29.741Z,19.20
2023-05-01T19:05:32.892Z,18.40
2023-05-01T19:10:37.473Z,30.70
2023-05-01T19:15:43.875Z,26.40
2023-05-01T19:20:47.103Z,35.60
2023-05-01T19:25:50.097Z,36.10
2023-05-01T19:30:58.737Z,20.90
2023-05-01T19:36:02.295Z,17.00
2023-05-01T19:41:05.236Z,15.50
2023-05-01T19:46:09.794Z,17.80
2023-05-01T19:51:12.807Z,17.80
2023-05-01T19:56:15.853Z,14.80
2023-05-01T20:01:18.996Z,22.50
2023-05-01T20:06:22.010Z,26.60
2023-05-01T20:11:25.017Z,20.90
2023-05-01T20:16:28.721Z,18.30
2023-05-01T20:21:32.859Z,15.80
2023-05-01T20:26:45.218Z,17.40
2023-05-01T20:31:49.241Z,13.20
2023-05-01T20:36:52.294Z,10.00
2023-05-01T20:41:56.141Z,6.70
2023-05-01T20:46:59.530Z,6.40
2023-05-01T20:52:02.484Z,6.60
2023-05-01T20:57:05.532Z,5.50
2023-05-01T21:02:08.515Z,8.70
2023-05-01T21:07:16.779Z,11.90
2023-05-01T21:12:19.786Z,7.70
2023-05-01T21:17:22.899Z,5.20
2023-05-01T21:22:25.994Z,4.50
2023-05-01T21:27:29.123Z,5.20
2023-05-01T21:32:34.312Z,5.00
2023-05-01T21:37:37.587Z,4.40
2023-05-01T21:42:41.380Z,6.20
2023-05-01T21:47:48.572Z,5.50
2023-05-01T21:52:51.714Z,4.90
2023-05-01T21:57:55.013Z,4.80
2023-05-01T22:02:58.262Z,5.00
2023-05-01T22:08:01.340Z,4.70
2023-05-01T22:13:35.410Z,5.30
2023-05-01T22:18:54.074Z,4.90
2023-05-01T22:23:57.285Z,4.70
2023-05-01T22:29:00.557Z,5.70
2023-05-01T22:34:03.665Z,5.20
2023-05-01T22:39:06.957Z,5.10
2023-05-01T22:44:10.096Z,4.70
2023-05-01T22:49:13.080Z,4.50
2023-05-01T22:54:16.191Z,5.10
2023-05-01T22:59:21.682Z,5.40
2023-05-01T23:04:24.906Z,4.20
2023-05-01T23:09:32.252Z,4.60
2023-05-01T23:14:44.847Z,5.30
2023-05-01T23:19:48.190Z,4.20
2023-05-01T23:24:51.113Z,3.80
2023-05-01T23:29:58.873Z,4.30
2023-05-01T23:35:16.175Z,5.10
2023-05-01T23:40:21.757Z,6.30
2023-05-01T23:45:25.563Z,6.30
2023-05-01T23:50:28.616Z,6.50
2023-05-01T23:55:31.797Z,4.90
